KLVS

Las Vegas Municipal Airport

Las Vegas, New Mexico, USA
KLVS 201724Z 2018/2118 15015G22KT P6SM VCSH OVC025 FM202000 20022G32KT P6SM VCSH SCT050 BKN080 TEMPO 2022/2101 24012G20KT BKN050 FM210100 25012KT P6SM SCT050 SCT080 FM210600 30010KT P6SM BKN080 FM211500 02008KT P6SM SCT080
Issued Valid From Valid To
Apr-20 @ 17:24 UTC
(an hour ago)
Apr-20 @ 18:00 UTC
(26 minutes ago)
Apr-21 @ 18:00 UTC
(in 24 hours)
Apr-20 @ 18:00 to Apr-20 @ 20:00
KLVS 201724Z 2018/2118 15015G22KT P6SM VCSH OVC025
Wind Visibility Clouds
150° at 15 knots
 Gusting to 22 knots
Greater than 6 miles
  • Overcast at 2,500' AGL
From Apr-20 @ 20:00 to Apr-21 @ 01:00
FM202000 20022G32KT P6SM VCSH SCT050 BKN080
Wind Visibility Clouds
200° at 22 knots
 Gusting to 32 knots
Greater than 6 miles
  • Scattered at 5,000' AGL
  • Broken at 8,000' AGL
Temporary Apr-20 @ 22:00 to Apr-21 @ 01:00
TEMPO 2022/2101 24012G20KT BKN050
Wind Clouds
240° at 12 knots
 Gusting to 20 knots
  • Broken at 5,000' AGL
From Apr-21 @ 01:00 to Apr-21 @ 06:00
FM210100 25012KT P6SM SCT050 SCT080
Wind Visibility Clouds
250° at 12 knots Greater than 6 miles
  • Scattered at 5,000' AGL
  • Scattered at 8,000' AGL
From Apr-21 @ 06:00 to Apr-21 @ 15:00
FM210600 30010KT P6SM BKN080
Wind Visibility Clouds
300° at 10 knots Greater than 6 miles
  • Broken at 8,000' AGL
From Apr-21 @ 15:00 to Apr-21 @ 18:00
FM211500 02008KT P6SM SCT080
Wind Visibility Clouds
20° at 8 knots Greater than 6 miles
  • Scattered at 8,000' AGL
KLVS 201724Z 2018/2118 15015G22KT P6SM VCSH OVC025 FM202000 20022G32KT P6SM VCSH SCT050 BKN080 TEMPO 2022/2101 24012G20KT BKN050 FM210100 25012KT P6SM SCT050 SCT080 FM210600 30010KT P6SM BKN080 FM211500 02008KT P6SM SCT080
Issued Apr-20 @ 17:24 UTC
(an hour ago)
Valid From Apr-20 @ 18:00 UTC
(26 minutes ago)
Valid To Apr-21 @ 18:00 UTC
(in 24 hours)
Apr-20 @ 18:00 - Apr-20 @ 20:00
Wind Visibility
150° at 15 knots
 Gusting to 22 knots
Greater than 6 miles
Clouds
  • Overcast at 2,500' AGL
From Apr-20 @ 20:00 - Apr-21 @ 01:00
Wind Visibility
200° at 22 knots
 Gusting to 32 knots
Greater than 6 miles
Clouds
  • Scattered at 5,000' AGL
  • Broken at 8,000' AGL
Temporary Apr-20 @ 22:00 - Apr-21 @ 01:00
Wind
240° at 12 knots
 Gusting to 20 knots
Clouds
  • Broken at 5,000' AGL
From Apr-21 @ 01:00 - Apr-21 @ 06:00
Wind Visibility
250° at 12 knots Greater than 6 miles
Clouds
  • Scattered at 5,000' AGL
  • Scattered at 8,000' AGL
From Apr-21 @ 06:00 - Apr-21 @ 15:00
Wind Visibility
300° at 10 knots Greater than 6 miles
Clouds
  • Broken at 8,000' AGL
From Apr-21 @ 15:00 - Apr-21 @ 18:00
Wind Visibility
20° at 8 knots Greater than 6 miles
Clouds
  • Scattered at 8,000' AGL